sensor_id;sensor_type;location;lat;lon;timestamp;temperature;humidity
20081;DHT22;10200;49.232;9.222;2023-12-20T00:02:17;6.30;99.90
20081;DHT22;10200;49.232;9.222;2023-12-20T00:04:42;6.30;99.90
20081;DHT22;10200;49.232;9.222;2023-12-20T00:07:08;6.30;99.90
20081;DHT22;10200;49.232;9.222;2023-12-20T00:09:33;6.30;99.90
20081;DHT22;10200;49.232;9.222;2023-12-20T00:11:59;6.30;99.90
20081;DHT22;10200;49.232;9.222;2023-12-20T00:14:24;6.30;99.90
20081;DHT22;10200;49.232;9.222;2023-12-20T00:16:50;6.30;99.90
20081;DHT22;10200;49.232;9.222;2023-12-20T00:19:15;6.30;99.90
20081;DHT22;10200;49.232;9.222;2023-12-20T00:21:41;6.30;99.90
20081;DHT22;10200;49.232;9.222;2023-12-20T00:24:07;6.30;99.90
20081;DHT22;10200;49.232;9.222;2023-12-20T00:26:33;6.20;99.90
20081;DHT22;10200;49.232;9.222;2023-12-20T00:28:58;6.20;99.90
20081;DHT22;10200;49.232;9.222;2023-12-20T00:31:24;6.20;99.90
20081;DHT22;10200;49.232;9.222;2023-12-20T00:33:49;6.20;99.90
20081;DHT22;10200;49.232;9.222;2023-12-20T00:36:15;6.20;99.90
20081;DHT22;10200;49.232;9.222;2023-12-20T00:38:40;6.20;99.90
20081;DHT22;10200;49.232;9.222;2023-12-20T00:41:06;6.20;99.90
20081;DHT22;10200;49.232;9.222;2023-12-20T00:43:31;6.20;99.90
20081;DHT22;10200;49.232;9.222;2023-12-20T00:45:57;6.20;99.90
20081;DHT22;10200;49.232;9.222;2023-12-20T00:48:25;6.20;99.90
20081;DHT22;10200;49.232;9.222;2023-12-20T00:50:52;6.20;99.90
20081;DHT22;10200;49.232;9.222;2023-12-20T00:53:18;6.20;99.90
20081;DHT22;10200;49.232;9.222;2023-12-20T00:55:43;6.20;99.90
20081;DHT22;10200;49.232;9.222;2023-12-20T00:58:10;6.10;99.90
20081;DHT22;10200;49.232;9.222;2023-12-20T01:00:35;6.20;99.90
20081;DHT22;10200;49.232;9.222;2023-12-20T01:03:01;6.10;99.90
20081;DHT22;10200;49.232;9.222;2023-12-20T01:05:26;6.20;99.90
20081;DHT22;10200;49.232;9.222;2023-12-20T01:07:52;6.20;99.90
20081;DHT22;10200;49.232;9.222;2023-12-20T01:10:17;6.20;99.90
20081;DHT22;10200;49.232;9.222;2023-12-20T01:12:43;6.10;99.90
20081;DHT22;10200;49.232;9.222;2023-12-20T01:15:09;6.20;99.90
20081;DHT22;10200;49.232;9.222;2023-12-20T01:17:35;6.20;99.90
20081;DHT22;10200;49.232;9.222;2023-12-20T01:20:01;6.20;99.90
20081;DHT22;10200;49.232;9.222;2023-12-20T01:22:26;6.20;99.90
20081;DHT22;10200;49.232;9.222;2023-12-20T01:24:52;6.20;99.90
20081;DHT22;10200;49.232;9.222;2023-12-20T01:27:18;6.20;99.90
20081;DHT22;10200;49.232;9.222;2023-12-20T01:29:44;6.20;99.90
20081;DHT22;10200;49.232;9.222;2023-12-20T01:32:09;6.30;99.90
20081;DHT22;10200;49.232;9.222;2023-12-20T01:34:35;6.20;99.90
20081;DHT22;10200;49.232;9.222;2023-12-20T01:37:01;6.30;99.90
20081;DHT22;10200;49.232;9.222;2023-12-20T01:39:27;6.20;99.90
20081;DHT22;10200;49.232;9.222;2023-12-20T01:41:52;6.20;99.90
20081;DHT22;10200;49.232;9.222;2023-12-20T01:44:18;6.30;99.90
20081;DHT22;10200;49.232;9.222;2023-12-20T01:46:43;6.30;99.90
20081;DHT22;10200;49.232;9.222;2023-12-20T01:49:09;6.30;99.90
20081;DHT22;10200;49.232;9.222;2023-12-20T01:51:35;6.30;99.90
20081;DHT22;10200;49.232;9.222;2023-12-20T01:54:01;6.30;99.90
20081;DHT22;10200;49.232;9.222;2023-12-20T01:56:27;6.30;99.90
20081;DHT22;10200;49.232;9.222;2023-12-20T01:58:54;6.30;99.90
20081;DHT22;10200;49.232;9.222;2023-12-20T02:01:21;6.30;99.90
20081;DHT22;10200;49.232;9.222;2023-12-20T02:03:46;6.30;99.90
20081;DHT22;10200;49.232;9.222;2023-12-20T02:06:12;6.30;99.90
20081;DHT22;10200;49.232;9.222;2023-12-20T02:08:38;6.30;99.90
20081;DHT22;10200;49.232;9.222;2023-12-20T02:11:04;6.40;99.90
20081;DHT22;10200;49.232;9.222;2023-12-20T02:13:30;6.40;99.90
20081;DHT22;10200;49.232;9.222;2023-12-20T02:15:56;6.40;99.90
20081;DHT22;10200;49.232;9.222;2023-12-20T02:18:22;6.40;99.90
20081;DHT22;10200;49.232;9.222;2023-12-20T02:20:48;6.40;99.90
20081;DHT22;10200;49.232;9.222;2023-12-20T02:23:13;6.40;99.90
20081;DHT22;10200;49.232;9.222;2023-12-20T02:25:39;6.40;99.90
20081;DHT22;10200;49.232;9.222;2023-12-20T02:28:05;6.40;99.90
20081;DHT22;10200;49.232;9.222;2023-12-20T02:30:32;6.40;99.90
20081;DHT22;10200;49.232;9.222;2023-12-20T02:32:59;6.40;99.90
20081;DHT22;10200;49.232;9.222;2023-12-20T02:35:26;6.40;99.90
20081;DHT22;10200;49.232;9.222;2023-12-20T02:37:51;6.40;99.90
20081;DHT22;10200;49.232;9.222;2023-12-20T02:40:17;6.40;99.90
20081;DHT22;10200;49.232;9.222;2023-12-20T02:42:43;6.40;99.90
20081;DHT22;10200;49.232;9.222;2023-12-20T02:45:08;6.40;99.90
20081;DHT22;10200;49.232;9.222;2023-12-20T02:47:34;6.40;99.90
20081;DHT22;10200;49.232;9.222;2023-12-20T02:50:00;6.40;99.90
20081;DHT22;10200;49.232;9.222;2023-12-20T02:52:27;6.40;99.90
20081;DHT22;10200;49.232;9.222;2023-12-20T02:54:52;6.40;99.90
20081;DHT22;10200;49.232;9.222;2023-12-20T02:57:18;6.40;99.90
20081;DHT22;10200;49.232;9.222;2023-12-20T02:59:43;6.30;99.90
20081;DHT22;10200;49.232;9.222;2023-12-20T03:02:09;6.30;99.90
20081;DHT22;10200;49.232;9.222;2023-12-20T03:04:35;6.40;99.90
20081;DHT22;10200;49.232;9.222;2023-12-20T03:07:00;6.40;99.90
20081;DHT22;10200;49.232;9.222;2023-12-20T03:09:26;6.40;99.90
20081;DHT22;10200;49.232;9.222;2023-12-20T03:11:51;6.40;99.90
20081;DHT22;10200;49.232;9.222;2023-12-20T03:14:17;6.40;99.90
20081;DHT22;10200;49.232;9.222;2023-12-20T03:16:47;6.40;99.90
20081;DHT22;10200;49.232;9.222;2023-12-20T03:19:15;6.40;99.90
20081;DHT22;10200;49.232;9.222;2023-12-20T03:21:41;6.40;99.90
20081;DHT22;10200;49.232;9.222;2023-12-20T03:24:06;6.40;99.90
20081;DHT22;10200;49.232;9.222;2023-12-20T03:26:32;6.40;99.90
20081;DHT22;10200;49.232;9.222;2023-12-20T03:28:57;6.40;99.90
20081;DHT22;10200;49.232;9.222;2023-12-20T03:31:23;6.40;99.90
20081;DHT22;10200;49.232;9.222;2023-12-20T03:33:49;6.40;99.90
20081;DHT22;10200;49.232;9.222;2023-12-20T03:36:14;6.40;99.90
20081;DHT22;10200;49.232;9.222;2023-12-20T03:38:40;6.40;99.90
20081;DHT22;10200;49.232;9.222;2023-12-20T03:41:06;6.40;99.90
20081;DHT22;10200;49.232;9.222;2023-12-20T03:43:32;6.40;99.90
20081;DHT22;10200;49.232;9.222;2023-12-20T03:45:58;6.40;99.90
20081;DHT22;10200;49.232;9.222;2023-12-20T03:48:24;6.40;99.90
20081;DHT22;10200;49.232;9.222;2023-12-20T03:50:49;6.40;99.90
20081;DHT22;10200;49.232;9.222;2023-12-20T03:53:15;6.40;99.90
20081;DHT22;10200;49.232;9.222;2023-12-20T03:55:40;6.40;99.90
20081;DHT22;10200;49.232;9.222;2023-12-20T03:58:06;6.40;99.90
20081;DHT22;10200;49.232;9.222;2023-12-20T04:00:31;6.40;99.90
20081;DHT22;10200;49.232;9.222;2023-12-20T04:02:57;6.40;99.90
20081;DHT22;10200;49.232;9.222;2023-12-20T04:05:22;6.40;99.90
20081;DHT22;10200;49.232;9.222;2023-12-20T04:07:48;6.30;99.90
20081;DHT22;10200;49.232;9.222;2023-12-20T04:10:15;6.30;99.90
20081;DHT22;10200;49.232;9.222;2023-12-20T04:12:41;6.40;99.90
20081;DHT22;10200;49.232;9.222;2023-12-20T04:15:07;6.40;99.90
20081;DHT22;10200;49.232;9.222;2023-12-20T04:17:35;6.40;99.90
20081;DHT22;10200;49.232;9.222;2023-12-20T04:20:01;6.40;99.90
20081;DHT22;10200;49.232;9.222;2023-12-20T04:22:27;6.40;99.90
20081;DHT22;10200;49.232;9.222;2023-12-20T04:24:52;6.40;99.90
20081;DHT22;10200;49.232;9.222;2023-12-20T04:27:18;6.40;99.90
20081;DHT22;10200;49.232;9.222;2023-12-20T04:29:43;6.40;99.90
20081;DHT22;10200;49.232;9.222;2023-12-20T04:32:09;6.40;99.90
20081;DHT22;10200;49.232;9.222;2023-12-20T04:34:34;6.40;99.90
20081;DHT22;10200;49.232;9.222;2023-12-20T04:37:00;6.40;99.90
20081;DHT22;10200;49.232;9.222;2023-12-20T04:39:27;6.40;99.90
20081;DHT22;10200;49.232;9.222;2023-12-20T04:41:52;6.40;99.90
20081;DHT22;10200;49.232;9.222;2023-12-20T04:44:18;6.40;99.90
20081;DHT22;10200;49.232;9.222;2023-12-20T04:46:44;6.40;99.90
20081;DHT22;10200;49.232;9.222;2023-12-20T04:49:09;6.40;99.90
20081;DHT22;10200;49.232;9.222;2023-12-20T04:51:35;6.40;99.90
20081;DHT22;10200;49.232;9.222;2023-12-20T04:54:01;6.40;99.90
20081;DHT22;10200;49.232;9.222;2023-12-20T04:56:27;6.40;99.90
20081;DHT22;10200;49.232;9.222;2023-12-20T04:58:52;6.40;99.90
20081;DHT22;10200;49.232;9.222;2023-12-20T05:01:18;6.40;99.90
20081;DHT22;10200;49.232;9.222;2023-12-20T05:03:44;6.40;99.90
20081;DHT22;10200;49.232;9.222;2023-12-20T05:06:10;6.40;99.90
20081;DHT22;10200;49.232;9.222;2023-12-20T05:08:36;6.40;99.90
20081;DHT22;10200;49.232;9.222;2023-12-20T05:11:01;6.40;99.90
20081;DHT22;10200;49.232;9.222;2023-12-20T05:13:27;6.50;99.90
20081;DHT22;10200;49.232;9.222;2023-12-20T05:15:52;6.50;99.90
20081;DHT22;10200;49.232;9.222;2023-12-20T05:18:18;6.40;99.90
20081;DHT22;10200;49.232;9.222;2023-12-20T05:20:44;6.40;99.90
20081;DHT22;10200;49.232;9.222;2023-12-20T05:23:09;6.40;99.90
20081;DHT22;10200;49.232;9.222;2023-12-20T05:25:35;6.40;99.90
20081;DHT22;10200;49.232;9.222;2023-12-20T05:28:00;6.40;99.90
20081;DHT22;10200;49.232;9.222;2023-12-20T05:30:26;6.40;99.90
20081;DHT22;10200;49.232;9.222;2023-12-20T05:32:52;6.40;99.90
20081;DHT22;10200;49.232;9.222;2023-12-20T05:35:17;6.40;99.90
20081;DHT22;10200;49.232;9.222;2023-12-20T05:37:43;6.40;99.90
20081;DHT22;10200;49.232;9.222;2023-12-20T05:40:09;6.40;99.90
20081;DHT22;10200;49.232;9.222;2023-12-20T05:42:37;6.40;99.90
20081;DHT22;10200;49.232;9.222;2023-12-20T05:45:04;6.50;99.90
20081;DHT22;10200;49.232;9.222;2023-12-20T05:47:29;6.40;99.90
20081;DHT22;10200;49.232;9.222;2023-12-20T05:49:55;6.40;99.90
20081;DHT22;10200;49.232;9.222;2023-12-20T05:52:20;6.50;99.90
20081;DHT22;10200;49.232;9.222;2023-12-20T05:54:46;6.50;99.90
20081;DHT22;10200;49.232;9.222;2023-12-20T05:57:11;6.50;99.90
20081;DHT22;10200;49.232;9.222;2023-12-20T05:59:37;6.50;99.90
20081;DHT22;10200;49.232;9.222;2023-12-20T06:02:03;6.50;99.90
20081;DHT22;10200;49.232;9.222;2023-12-20T06:04:29;6.50;99.90
20081;DHT22;10200;49.232;9.222;2023-12-20T06:06:55;6.50;99.90
20081;DHT22;10200;49.232;9.222;2023-12-20T06:09:20;6.50;99.90
20081;DHT22;10200;49.232;9.222;2023-12-20T06:11:46;6.50;99.90
20081;DHT22;10200;49.232;9.222;2023-12-20T06:14:11;6.50;99.90
20081;DHT22;10200;49.232;9.222;2023-12-20T06:16:37;6.50;99.90
20081;DHT22;10200;49.232;9.222;2023-12-20T06:19:02;6.50;99.90
20081;DHT22;10200;49.232;9.222;2023-12-20T06:21:28;6.50;99.90
20081;DHT22;10200;49.232;9.222;2023-12-20T06:23:53;6.50;99.90
20081;DHT22;10200;49.232;9.222;2023-12-20T06:26:20;6.50;99.90
20081;DHT22;10200;49.232;9.222;2023-12-20T06:28:45;6.50;99.90
20081;DHT22;10200;49.232;9.222;2023-12-20T06:31:11;5.40;99.90
20081;DHT22;10200;49.232;9.222;2023-12-20T06:33:37;6.60;99.90
20081;DHT22;10200;49.232;9.222;2023-12-20T06:36:02;6.60;99.90
20081;DHT22;10200;49.232;9.222;2023-12-20T06:38:28;6.60;99.90
20081;DHT22;10200;49.232;9.222;2023-12-20T06:40:54;6.60;99.90
20081;DHT22;10200;49.232;9.222;2023-12-20T06:43:19;6.60;99.90
20081;DHT22;10200;49.232;9.222;2023-12-20T06:45:45;6.60;99.90
20081;DHT22;10200;49.232;9.222;2023-12-20T06:48:10;6.60;99.90
20081;DHT22;10200;49.232;9.222;2023-12-20T06:50:38;6.60;99.90
20081;DHT22;10200;49.232;9.222;2023-12-20T06:53:05;6.60;99.90
20081;DHT22;10200;49.232;9.222;2023-12-20T06:55:33;6.60;99.90
20081;DHT22;10200;49.232;9.222;2023-12-20T06:57:59;6.60;99.90
20081;DHT22;10200;49.232;9.222;2023-12-20T07:00:25;6.60;99.90
20081;DHT22;10200;49.232;9.222;2023-12-20T07:02:50;6.60;99.90
20081;DHT22;10200;49.232;9.222;2023-12-20T07:05:17;6.60;99.90
20081;DHT22;10200;49.232;9.222;2023-12-20T07:07:45;6.60;99.90
20081;DHT22;10200;49.232;9.222;2023-12-20T07:10:11;6.60;99.90
20081;DHT22;10200;49.232;9.222;2023-12-20T07:12:36;6.60;99.90
20081;DHT22;10200;49.232;9.222;2023-12-20T07:15:02;6.60;99.90
20081;DHT22;10200;49.232;9.222;2023-12-20T07:17:28;6.60;99.90
20081;DHT22;10200;49.232;9.222;2023-12-20T07:19:53;6.70;99.90
20081;DHT22;10200;49.232;9.222;2023-12-20T07:22:19;6.60;99.90
20081;DHT22;10200;49.232;9.222;2023-12-20T07:24:44;6.60;99.90
20081;DHT22;10200;49.232;9.222;2023-12-20T07:27:11;6.60;99.90
20081;DHT22;10200;49.232;9.222;2023-12-20T07:29:36;6.60;99.90
20081;DHT22;10200;49.232;9.222;2023-12-20T07:32:02;6.60;99.90
20081;DHT22;10200;49.232;9.222;2023-12-20T07:34:27;6.60;99.90
20081;DHT22;10200;49.232;9.222;2023-12-20T07:36:53;6.60;99.90
20081;DHT22;10200;49.232;9.222;2023-12-20T07:39:19;6.60;99.90
20081;DHT22;10200;49.232;9.222;2023-12-20T07:41:44;6.60;99.90
20081;DHT22;10200;49.232;9.222;2023-12-20T07:44:10;6.60;99.90
20081;DHT22;10200;49.232;9.222;2023-12-20T07:46:35;6.60;99.90
20081;DHT22;10200;49.232;9.222;2023-12-20T07:49:01;6.60;99.90
20081;DHT22;10200;49.232;9.222;2023-12-20T07:51:26;6.60;99.90
20081;DHT22;10200;49.232;9.222;2023-12-20T07:53:52;6.60;99.90
20081;DHT22;10200;49.232;9.222;2023-12-20T07:56:19;6.60;99.90
20081;DHT22;10200;49.232;9.222;2023-12-20T07:58:45;6.60;99.90
20081;DHT22;10200;49.232;9.222;2023-12-20T08:01:11;6.60;99.90
20081;DHT22;10200;49.232;9.222;2023-12-20T08:03:37;6.60;99.90
20081;DHT22;10200;49.232;9.222;2023-12-20T08:06:03;6.70;99.90
20081;DHT22;10200;49.232;9.222;2023-12-20T08:08:29;6.70;99.90
20081;DHT22;10200;49.232;9.222;2023-12-20T08:10:55;6.70;99.90
20081;DHT22;10200;49.232;9.222;2023-12-20T08:13:20;6.70;99.90
20081;DHT22;10200;49.232;9.222;2023-12-20T08:15:50;6.70;99.90
20081;DHT22;10200;49.232;9.222;2023-12-20T08:18:15;7.00;99.90
20081;DHT22;10200;49.232;9.222;2023-12-20T08:20:41;7.10;99.90
20081;DHT22;10200;49.232;9.222;2023-12-20T08:23:07;7.70;99.90
20081;DHT22;10200;49.232;9.222;2023-12-20T08:25:32;8.20;99.90
20081;DHT22;10200;49.232;9.222;2023-12-20T08:27:58;8.70;99.90
20081;DHT22;10200;49.232;9.222;2023-12-20T08:30:23;9.00;99.90
20081;DHT22;10200;49.232;9.222;2023-12-20T08:32:49;9.20;99.90
20081;DHT22;10200;49.232;9.222;2023-12-20T08:35:14;9.20;99.90
20081;DHT22;10200;49.232;9.222;2023-12-20T08:37:40;9.00;99.90
20081;DHT22;10200;49.232;9.222;2023-12-20T08:40:06;8.70;99.90
20081;DHT22;10200;49.232;9.222;2023-12-20T08:42:31;8.40;99.90
20081;DHT22;10200;49.232;9.222;2023-12-20T08:44:57;8.20;99.90
20081;DHT22;10200;49.232;9.222;2023-12-20T08:47:26;8.10;99.90
20081;DHT22;10200;49.232;9.222;2023-12-20T08:49:52;8.20;99.90
20081;DHT22;10200;49.232;9.222;2023-12-20T08:52:22;8.30;99.90
20081;DHT22;10200;49.232;9.222;2023-12-20T08:54:48;8.50;99.90
20081;DHT22;10200;49.232;9.222;2023-12-20T08:57:14;8.60;99.90
20081;DHT22;10200;49.232;9.222;2023-12-20T08:59:39;8.70;99.90
20081;DHT22;10200;49.232;9.222;2023-12-20T09:02:05;8.80;99.90
20081;DHT22;10200;49.232;9.222;2023-12-20T09:04:31;8.80;99.90
20081;DHT22;10200;49.232;9.222;2023-12-20T09:07:00;8.80;99.90
20081;DHT22;10200;49.232;9.222;2023-12-20T09:09:26;8.70;99.90
20081;DHT22;10200;49.232;9.222;2023-12-20T09:11:52;8.70;99.90
20081;DHT22;10200;49.232;9.222;2023-12-20T09:14:17;8.60;99.90
20081;DHT22;10200;49.232;9.222;2023-12-20T09:16:43;8.60;99.90
20081;DHT22;10200;49.232;9.222;2023-12-20T09:19:08;8.50;99.90
20081;DHT22;10200;49.232;9.222;2023-12-20T09:21:34;8.50;99.90
20081;DHT22;10200;49.232;9.222;2023-12-20T09:24:00;8.60;99.90
20081;DHT22;10200;49.232;9.222;2023-12-20T09:26:25;8.50;99.90
20081;DHT22;10200;49.232;9.222;2023-12-20T09:28:51;8.60;99.90
20081;DHT22;10200;49.232;9.222;2023-12-20T09:31:16;8.60;99.90
20081;DHT22;10200;49.232;9.222;2023-12-20T09:33:42;8.60;99.90
20081;DHT22;10200;49.232;9.222;2023-12-20T09:36:08;8.70;99.90
20081;DHT22;10200;49.232;9.222;2023-12-20T09:38:33;8.80;99.90
20081;DHT22;10200;49.232;9.222;2023-12-20T09:40:59;8.90;99.90
20081;DHT22;10200;49.232;9.222;2023-12-20T09:43:27;8.90;99.90
20081;DHT22;10200;49.232;9.222;2023-12-20T09:46:00;8.80;99.90
20081;DHT22;10200;49.232;9.222;2023-12-20T09:48:27;8.80;99.90
20081;DHT22;10200;49.232;9.222;2023-12-20T09:50:54;8.70;99.90
20081;DHT22;10200;49.232;9.222;2023-12-20T09:53:21;8.70;99.90
20081;DHT22;10200;49.232;9.222;2023-12-20T09:55:48;8.70;99.90
20081;DHT22;10200;49.232;9.222;2023-12-20T09:58:14;8.70;99.90
20081;DHT22;10200;49.232;9.222;2023-12-20T10:00:40;8.70;99.90
20081;DHT22;10200;49.232;9.222;2023-12-20T10:03:06;8.70;99.90
20081;DHT22;10200;49.232;9.222;2023-12-20T10:05:33;8.80;99.90
20081;DHT22;10200;49.232;9.222;2023-12-20T10:08:00;8.90;99.90
20081;DHT22;10200;49.232;9.222;2023-12-20T10:10:26;8.90;99.90
20081;DHT22;10200;49.232;9.222;2023-12-20T10:13:21;8.80;99.90
20081;DHT22;10200;49.232;9.222;2023-12-20T10:15:47;8.70;99.90
20081;DHT22;10200;49.232;9.222;2023-12-20T10:18:15;8.60;99.90
20081;DHT22;10200;49.232;9.222;2023-12-20T10:20:41;8.40;99.90
20081;DHT22;10200;49.232;9.222;2023-12-20T10:23:08;8.30;99.90
20081;DHT22;10200;49.232;9.222;2023-12-20T10:25:33;8.20;99.90
20081;DHT22;10200;49.232;9.222;2023-12-20T10:28:16;8.20;99.90
20081;DHT22;10200;49.232;9.222;2023-12-20T10:30:48;8.10;99.90
20081;DHT22;10200;49.232;9.222;2023-12-20T10:33:13;8.00;99.90
20081;DHT22;10200;49.232;9.222;2023-12-20T10:35:40;8.00;99.90
20081;DHT22;10200;49.232;9.222;2023-12-20T10:38:06;8.00;99.90
20081;DHT22;10200;49.232;9.222;2023-12-20T10:40:36;8.00;99.90
20081;DHT22;10200;49.232;9.222;2023-12-20T10:43:03;8.00;99.90
20081;DHT22;10200;49.232;9.222;2023-12-20T10:45:28;8.10;99.90
20081;DHT22;10200;49.232;9.222;2023-12-20T10:47:54;8.10;99.90
20081;DHT22;10200;49.232;9.222;2023-12-20T10:50:20;8.10;99.90
20081;DHT22;10200;49.232;9.222;2023-12-20T10:52:47;8.10;99.90
20081;DHT22;10200;49.232;9.222;2023-12-20T10:55:13;8.00;99.90
20081;DHT22;10200;49.232;9.222;2023-12-20T10:57:39;8.10;99.90
20081;DHT22;10200;49.232;9.222;2023-12-20T11:00:08;8.10;99.90
20081;DHT22;10200;49.232;9.222;2023-12-20T11:02:39;8.10;99.90
20081;DHT22;10200;49.232;9.222;2023-12-20T11:09:06;8.10;99.90
20081;DHT22;10200;49.232;9.222;2023-12-20T11:13:36;8.00;99.90
20081;DHT22;10200;49.232;9.222;2023-12-20T11:16:03;8.00;99.90
20081;DHT22;10200;49.232;9.222;2023-12-20T11:21:01;7.90;99.90
20081;DHT22;10200;49.232;9.222;2023-12-20T11:23:29;7.90;99.90
20081;DHT22;10200;49.232;9.222;2023-12-20T11:25:57;7.90;99.90
20081;DHT22;10200;49.232;9.222;2023-12-20T11:28:26;8.00;99.90
20081;DHT22;10200;49.232;9.222;2023-12-20T11:30:57;8.00;99.90
20081;DHT22;10200;49.232;9.222;2023-12-20T11:33:45;8.10;99.90
20081;DHT22;10200;49.232;9.222;2023-12-20T11:36:19;8.00;99.90
20081;DHT22;10200;49.232;9.222;2023-12-20T11:39:06;8.00;99.90
20081;DHT22;10200;49.232;9.222;2023-12-20T11:41:34;8.00;99.90
20081;DHT22;10200;49.232;9.222;2023-12-20T11:44:00;8.10;99.90
20081;DHT22;10200;49.232;9.222;2023-12-20T11:46:26;8.10;99.90
20081;DHT22;10200;49.232;9.222;2023-12-20T11:48:52;8.20;99.90
20081;DHT22;10200;49.232;9.222;2023-12-20T11:51:17;8.20;99.90
20081;DHT22;10200;49.232;9.222;2023-12-20T11:53:43;8.20;99.90
20081;DHT22;10200;49.232;9.222;2023-12-20T11:56:09;8.20;99.90
20081;DHT22;10200;49.232;9.222;2023-12-20T11:58:35;8.30;99.90
20081;DHT22;10200;49.232;9.222;2023-12-20T12:01:01;8.20;99.90
20081;DHT22;10200;49.232;9.222;2023-12-20T12:03:28;8.20;99.90
20081;DHT22;10200;49.232;9.222;2023-12-20T12:05:53;8.10;99.90
20081;DHT22;10200;49.232;9.222;2023-12-20T12:08:19;8.20;99.90
20081;DHT22;10200;49.232;9.222;2023-12-20T12:10:45;8.10;99.90
20081;DHT22;10200;49.232;9.222;2023-12-20T12:13:11;8.10;99.90
20081;DHT22;10200;49.232;9.222;2023-12-20T12:15:37;8.00;99.90
20081;DHT22;10200;49.232;9.222;2023-12-20T12:18:03;8.00;99.90
20081;DHT22;10200;49.232;9.222;2023-12-20T12:40:10;8.10;99.90
20081;DHT22;10200;49.232;9.222;2023-12-20T12:42:37;8.10;99.90
20081;DHT22;10200;49.232;9.222;2023-12-20T12:45:03;8.10;99.90
20081;DHT22;10200;49.232;9.222;2023-12-20T12:47:30;8.10;99.90
20081;DHT22;10200;49.232;9.222;2023-12-20T12:49:56;8.20;99.90
20081;DHT22;10200;49.232;9.222;2023-12-20T12:52:22;8.30;99.90
20081;DHT22;10200;49.232;9.222;2023-12-20T12:54:48;8.30;99.90
20081;DHT22;10200;49.232;9.222;2023-12-20T12:57:15;8.20;99.90
20081;DHT22;10200;49.232;9.222;2023-12-20T12:59:42;8.30;99.90
20081;DHT22;10200;49.232;9.222;2023-12-20T13:02:08;8.30;99.90
20081;DHT22;10200;49.232;9.222;2023-12-20T13:04:33;8.20;99.90
20081;DHT22;10200;49.232;9.222;2023-12-20T13:06:59;8.10;99.90
20081;DHT22;10200;49.232;9.222;2023-12-20T13:09:25;8.10;99.90
20081;DHT22;10200;49.232;9.222;2023-12-20T13:11:50;8.10;99.90
20081;DHT22;10200;49.232;9.222;2023-12-20T13:14:16;8.00;99.90
20081;DHT22;10200;49.232;9.222;2023-12-20T13:19:10;7.90;99.90
20081;DHT22;10200;49.232;9.222;2023-12-20T13:24:02;7.80;99.90
20081;DHT22;10200;49.232;9.222;2023-12-20T13:26:27;7.80;99.90
20081;DHT22;10200;49.232;9.222;2023-12-20T13:28:54;7.70;99.90
20081;DHT22;10200;49.232;9.222;2023-12-20T13:31:20;7.70;99.90
20081;DHT22;10200;49.232;9.222;2023-12-20T13:33:46;7.70;99.90
20081;DHT22;10200;49.232;9.222;2023-12-20T13:36:12;7.80;99.90
20081;DHT22;10200;49.232;9.222;2023-12-20T13:38:37;7.70;99.90
20081;DHT22;10200;49.232;9.222;2023-12-20T13:41:03;7.60;99.90
20081;DHT22;10200;49.232;9.222;2023-12-20T13:45:55;7.50;99.90
20081;DHT22;10200;49.232;9.222;2023-12-20T13:48:21;7.50;99.90
20081;DHT22;10200;49.232;9.222;2023-12-20T13:50:47;7.50;99.90
20081;DHT22;10200;49.232;9.222;2023-12-20T13:53:12;7.50;99.90
20081;DHT22;10200;49.232;9.222;2023-12-20T13:55:39;7.50;99.90
20081;DHT22;10200;49.232;9.222;2023-12-20T13:58:05;7.50;99.90
20081;DHT22;10200;49.232;9.222;2023-12-20T14:00:31;7.40;99.90
20081;DHT22;10200;49.232;9.222;2023-12-20T14:02:56;7.50;99.90
20081;DHT22;10200;49.232;9.222;2023-12-20T14:05:23;7.40;99.90
20081;DHT22;10200;49.232;9.222;2023-12-20T14:07:49;7.40;99.90
20081;DHT22;10200;49.232;9.222;2023-12-20T14:10:15;7.40;99.90
20081;DHT22;10200;49.232;9.222;2023-12-20T14:12:41;7.40;99.90
20081;DHT22;10200;49.232;9.222;2023-12-20T14:15:07;7.40;99.90
20081;DHT22;10200;49.232;9.222;2023-12-20T14:17:37;7.40;99.90
20081;DHT22;10200;49.232;9.222;2023-12-20T14:20:05;7.30;99.90
20081;DHT22;10200;49.232;9.222;2023-12-20T14:22:31;7.30;99.90
20081;DHT22;10200;49.232;9.222;2023-12-20T14:24:57;7.20;99.90
20081;DHT22;10200;49.232;9.222;2023-12-20T14:27:22;7.20;99.90
20081;DHT22;10200;49.232;9.222;2023-12-20T14:29:50;7.10;99.90
20081;DHT22;10200;49.232;9.222;2023-12-20T14:32:15;7.10;99.90
20081;DHT22;10200;49.232;9.222;2023-12-20T14:34:41;7.10;99.90
20081;DHT22;10200;49.232;9.222;2023-12-20T14:37:07;7.00;99.90
20081;DHT22;10200;49.232;9.222;2023-12-20T14:39:33;7.00;99.90
20081;DHT22;10200;49.232;9.222;2023-12-20T14:41:58;7.00;99.90
20081;DHT22;10200;49.232;9.222;2023-12-20T14:44:24;7.00;99.90
20081;DHT22;10200;49.232;9.222;2023-12-20T14:46:50;7.00;99.90
20081;DHT22;10200;49.232;9.222;2023-12-20T14:49:16;7.00;99.90
20081;DHT22;10200;49.232;9.222;2023-12-20T14:51:44;6.90;99.90
20081;DHT22;10200;49.232;9.222;2023-12-20T14:54:10;6.90;99.90
20081;DHT22;10200;49.232;9.222;2023-12-20T14:56:35;6.90;99.90
20081;DHT22;10200;49.232;9.222;2023-12-20T14:59:01;6.90;99.90
20081;DHT22;10200;49.232;9.222;2023-12-20T15:01:27;6.90;99.90
20081;DHT22;10200;49.232;9.222;2023-12-20T15:03:52;6.90;99.90
20081;DHT22;10200;49.232;9.222;2023-12-20T15:06:18;6.90;99.90
20081;DHT22;10200;49.232;9.222;2023-12-20T15:08:45;6.90;99.90
20081;DHT22;10200;49.232;9.222;2023-12-20T15:11:11;6.90;99.90
20081;DHT22;10200;49.232;9.222;2023-12-20T15:13:37;6.90;99.90
20081;DHT22;10200;49.232;9.222;2023-12-20T15:16:03;6.90;99.90
20081;DHT22;10200;49.232;9.222;2023-12-20T15:18:30;6.90;99.90
20081;DHT22;10200;49.232;9.222;2023-12-20T15:20:57;6.90;99.90
20081;DHT22;10200;49.232;9.222;2023-12-20T15:23:23;6.90;99.90
20081;DHT22;10200;49.232;9.222;2023-12-20T15:25:51;6.90;99.90
20081;DHT22;10200;49.232;9.222;2023-12-20T15:28:17;6.90;99.90
20081;DHT22;10200;49.232;9.222;2023-12-20T15:30:42;6.90;99.90
20081;DHT22;10200;49.232;9.222;2023-12-20T15:33:08;6.80;99.90
20081;DHT22;10200;49.232;9.222;2023-12-20T15:35:34;6.70;99.90
20081;DHT22;10200;49.232;9.222;2023-12-20T15:37:59;6.70;99.90
20081;DHT22;10200;49.232;9.222;2023-12-20T15:40:25;6.70;99.90
20081;DHT22;10200;49.232;9.222;2023-12-20T15:42:50;6.70;99.90
20081;DHT22;10200;49.232;9.222;2023-12-20T15:45:16;6.60;99.90
20081;DHT22;10200;49.232;9.222;2023-12-20T15:47:42;6.60;99.90
20081;DHT22;10200;49.232;9.222;2023-12-20T15:50:07;6.60;99.90
20081;DHT22;10200;49.232;9.222;2023-12-20T15:52:33;6.60;99.90
20081;DHT22;10200;49.232;9.222;2023-12-20T15:54:59;6.50;99.90
20081;DHT22;10200;49.232;9.222;2023-12-20T15:57:24;6.50;99.90
20081;DHT22;10200;49.232;9.222;2023-12-20T15:59:50;6.50;99.90
20081;DHT22;10200;49.232;9.222;2023-12-20T16:02:16;6.50;99.90
20081;DHT22;10200;49.232;9.222;2023-12-20T16:04:42;6.50;99.90
20081;DHT22;10200;49.232;9.222;2023-12-20T16:07:08;6.50;99.90
20081;DHT22;10200;49.232;9.222;2023-12-20T16:09:33;6.60;99.90
20081;DHT22;10200;49.232;9.222;2023-12-20T16:11:59;6.50;99.90
20081;DHT22;10200;49.232;9.222;2023-12-20T16:14:24;6.50;99.90